Hillcrest, Florida
Current Conditions -  °F | °C
As of 8:53 PM on Monday 24 Nov 2014 (Local Time) from KHWO Reporting Station
Clear Clear  
Wind Chill: 79°   Ceiling: Unl
Heat Index: 83°   Visibility: 10mi
Dew Point: 76°   Wind: 5mph
Humidity: 90%   Direction: 150°SSE
Pressure: 30.04"   Gusts: NA
Location:  26.0179°N, 80.2031°W
Report Text: KHWO 250153Z 15004KT 10SM CLR 26/24 A3004 RMK AO2 SLP173 T02610244
Loading
Personal Weather Stations






























Interactive Weather Map New forecast layout! Learn more

10-Day Weather Forecast

Advertisements
Track Severe Weather on mobile